Time;durP1;ratioP1;P1;durP2;ratioP2;P2;SDS_P1;SDS_P2;PMS_P1;PMS_P2;Temp;Humidity;BMP_temperature;BMP_pressure;BME280_temperature;BME280_humidity;BME280_pressure;Samples;Min_cycle;Max_cycle;Signal;HPM_P1;HPM_P2
2022/07/30 00:02:00;;;;;;;6.50;5.60;;;;;;;21.53;61.63;101315.50;5060278;28;20229;-67
2022/07/30 00:04:25;;;;;;;7.63;5.70;;;;;;;21.51;62.00;101317.31;5060571;28;20500;-67
2022/07/30 00:06:51;;;;;;;6.57;5.47;;;;;;;21.15;62.65;101325.31;5060210;28;20447;-67
2022/07/30 00:09:16;;;;;;;9.50;5.60;;;;;;;21.21;63.15;101324.28;5060188;28;20248;-67
2022/07/30 00:11:42;;;;;;;9.07;7.00;;;;;;;21.28;62.74;101325.00;5060885;28;20185;-67
2022/07/30 00:14:08;;;;;;;6.77;5.97;;;;;;;21.53;61.71;101318.16;5059951;28;20177;-67
2022/07/30 00:16:34;;;;;;;8.70;6.20;;;;;;;21.34;62.28;101316.88;5060077;28;20473;-67
2022/07/30 00:19:00;;;;;;;10.20;5.60;;;;;;;20.98;63.26;101316.91;5060440;28;20461;-67
2022/07/30 00:21:25;;;;;;;5.70;5.07;;;;;;;21.34;62.42;101322.19;5059965;28;20208;-67
2022/07/30 00:23:51;;;;;;;11.97;6.00;;;;;;;21.13;62.57;101313.84;5059701;28;20428;-67
2022/07/30 00:26:16;;;;;;;6.53;5.80;;;;;;;21.21;63.18;101316.31;5060202;28;20193;-69
2022/07/30 00:28:41;;;;;;;6.60;5.30;;;;;;;21.48;62.41;101319.16;5059885;28;20170;-67
2022/07/30 00:31:07;;;;;;;7.20;5.73;;;;;;;20.98;63.34;101316.91;5059758;28;20212;-67
2022/07/30 00:33:32;;;;;;;5.83;5.33;;;;;;;21.00;63.39;101310.66;5060613;28;20170;-68
2022/07/30 00:35:58;;;;;;;7.30;5.30;;;;;;;20.93;63.66;101317.03;5059571;28;20165;-67
2022/07/30 00:38:23;;;;;;;9.33;5.57;;;;;;;21.16;63.56;101305.84;5059612;28;20410;-67
2022/07/30 00:40:48;;;;;;;7.90;5.90;;;;;;;21.06;63.37;101312.28;5059858;28;20181;-67
2022/07/30 00:43:15;;;;;;;6.87;5.30;;;;;;;21.03;63.12;101305.28;5059493;28;20223;-67
2022/07/30 00:45:42;;;;;;;6.20;5.60;;;;;;;20.76;64.29;101306.81;5059361;28;20546;-67
2022/07/30 00:48:07;;;;;;;6.30;5.63;;;;;;;20.62;64.51;101306.22;5059937;28;20423;-66
2022/07/30 00:50:33;;;;;;;7.40;6.00;;;;;;;20.89;63.85;101302.13;5059337;28;20778;-67
2022/07/30 00:52:58;;;;;;;7.43;5.40;;;;;;;20.89;64.22;101298.56;5059198;28;20192;-67
2022/07/30 00:55:24;;;;;;;8.57;5.70;;;;;;;20.88;64.72;101296.81;5059547;28;20161;-68
2022/07/30 00:57:49;;;;;;;6.30;5.70;;;;;;;21.02;64.12;101303.53;5058674;28;20180;-68
2022/07/30 01:00:16;;;;;;;6.60;4.93;;;;;;;20.96;64.06;101302.81;5059135;28;20543;-68
2022/07/30 01:02:41;;;;;;;7.13;5.83;;;;;;;21.01;63.89;101295.63;5059589;28;20566;-69
2022/07/30 01:05:07;;;;;;;7.23;5.90;;;;;;;20.76;64.62;101301.53;5058900;28;20415;-67
2022/07/30 01:07:33;;;;;;;5.63;5.10;;;;;;;20.73;64.87;101298.06;5059047;28;20565;-68
2022/07/30 01:09:58;;;;;;;10.37;5.73;;;;;;;20.78;64.24;101283.81;5059485;28;20532;-67
2022/07/30 01:12:25;;;;;;;5.93;5.30;;;;;;;20.69;65.02;101292.84;5059028;28;20161;-68
2022/07/30 01:14:51;;;;;;;6.57;5.37;;;;;;;20.67;65.06;101293.75;5058832;28;20166;-67
2022/07/30 01:17:20;;;;;;;10.03;6.07;;;;;;;20.79;65.26;101295.28;5059346;28;20404;-68
2022/07/30 01:19:51;;;;;;;6.00;5.03;;;;;;;20.84;64.58;101286.31;5058882;28;20390;-68
2022/07/30 01:22:25;;;;;;;7.00;5.70;;;;;;;20.85;65.14;101284.50;5058021;28;20729;-68
2022/07/30 01:24:57;;;;;;;10.53;5.87;;;;;;;21.11;64.14;101281.22;5058573;28;20867;-67
2022/07/30 01:27:24;;;;;;;10.20;6.03;;;;;;;20.86;64.83;101270.38;5058807;28;20386;-67
2022/07/30 01:29:50;;;;;;;6.37;5.70;;;;;;;20.59;65.30;101279.81;5057832;28;20387;-67
2022/07/30 01:32:17;;;;;;;7.80;5.93;;;;;;;20.50;65.48;101281.78;5057928;28;20491;-67
2022/07/30 01:34:43;;;;;;;7.50;5.57;;;;;;;20.70;65.20;101272.50;5057996;28;20222;-67
2022/07/30 01:37:10;;;;;;;11.17;6.07;;;;;;;20.56;65.77;101270.16;5057790;28;20415;-68
2022/07/30 01:39:36;;;;;;;8.33;6.13;;;;;;;20.43;66.00;101271.34;5057800;28;20386;-67
2022/07/30 01:42:05;;;;;;;6.10;5.50;;;;;;;20.74;65.02;101273.31;5058209;28;20422;-66
2022/07/30 01:44:31;;;;;;;6.23;5.63;;;;;;;20.80;65.23;101265.22;5057738;28;20480;-67
2022/07/30 01:46:57;;;;;;;9.47;6.10;;;;;;;20.51;65.47;101270.28;5058559;28;20815;-67
2022/07/30 01:49:23;;;;;;;6.47;5.77;;;;;;;20.66;65.33;101270.81;5058672;28;20303;-68
2022/07/30 01:51:49;;;;;;;7.40;5.83;;;;;;;20.59;66.09;101272.72;5057585;28;20444;-67
2022/07/30 01:54:17;;;;;;;6.60;5.90;;;;;;;20.53;65.36;101273.75;5057352;28;20901;-67
2022/07/30 01:56:43;;;;;;;6.53;5.93;;;;;;;20.55;65.65;101267.56;5058063;28;20404;-67
2022/07/30 01:59:09;;;;;;;6.53;5.93;;;;;;;20.58;65.61;101276.31;5057738;28;20800;-67
2022/07/30 02:01:35;;;;;;;9.77;6.30;;;;;;;20.52;65.40;101266.72;5057423;28;20880;-67
2022/07/30 02:04:01;;;;;;;6.53;5.90;;;;;;;20.73;65.15;101259.22;5058309;28;20408;-67
2022/07/30 02:06:33;;;;;;;7.30;5.37;;;;;;;20.89;64.69;101264.13;5058088;28;20176;-67
2022/07/30 02:09:02;;;;;;;22.23;6.10;;;;;;;20.53;65.81;101260.50;5057240;28;20439;-67
2022/07/30 02:14:18;;;;;;;6.17;5.57;;;;;;;20.72;65.26;101248.66;5057336;28;20393;-67
2022/07/30 02:16:45;;;;;;;6.43;5.70;;;;;;;20.46;65.63;101263.38;5057325;28;20627;-66
2022/07/30 02:19:14;;;;;;;8.67;5.90;;;;;;;20.80;64.76;101266.09;5057180;28;20424;-66
2022/07/30 02:21:46;;;;;;;10.80;5.00;;;;;;;20.11;66.28;101265.88;5057287;28;20506;-66
2022/07/30 02:24:14;;;;;;;7.07;5.60;;;;;;;20.51;65.63;101259.69;5057062;28;20696;-67
2022/07/30 02:26:41;;;;;;;8.47;6.43;;;;;;;20.14;66.74;101268.44;5057090;28;20481;-69
2022/07/30 02:29:07;;;;;;;7.40;5.27;;;;;;;20.30;66.29;101261.06;5057269;28;20418;-67
2022/07/30 02:31:33;;;;;;;7.20;5.50;;;;;;;20.66;65.59;101258.47;5057403;28;20405;-68
2022/07/30 02:34:00;;;;;;;6.00;5.50;;;;;;;20.77;65.12;101260.88;5056877;28;20408;-68
2022/07/30 02:36:26;;;;;;;7.87;6.00;;;;;;;20.78;64.78;101257.31;5057171;28;20165;-68
2022/07/30 02:38:53;;;;;;;9.27;5.90;;;;;;;20.77;64.79;101260.00;5057273;28;20712;-68
2022/07/30 02:41:19;;;;;;;11.27;5.90;;;;;;;20.67;64.97;101264.63;5057000;28;20427;-67
2022/07/30 02:43:47;;;;;;;8.60;5.70;;;;;;;20.51;65.14;101269.41;5057454;28;20418;-67
2022/07/30 02:46:13;;;;;;;12.80;5.70;;;;;;;20.48;65.83;101267.69;5057577;28;20455;-67
2022/07/30 02:48:39;;;;;;;7.90;5.20;;;;;;;20.89;64.03;101265.00;5057075;28;20390;-67
2022/07/30 02:51:06;;;;;;;7.10;6.20;;;;;;;20.64;64.68;101262.03;5057621;28;20401;-69
2022/07/30 02:53:31;;;;;;;9.70;6.07;;;;;;;20.73;65.04;101258.31;5056872;28;20459;-67
2022/07/30 02:55:58;;;;;;;6.60;5.70;;;;;;;20.55;65.33;101267.56;5056849;28;20393;-67
2022/07/30 02:58:24;;;;;;;9.13;5.70;;;;;;;20.53;64.84;101267.59;5057053;28;20185;-68
2022/07/30 03:00:51;;;;;;;6.30;5.70;;;;;;;20.86;64.12;101263.31;5057471;28;20415;-68
2022/07/30 03:03:17;;;;;;;6.57;5.80;;;;;;;20.83;64.53;101257.19;5056758;28;20810;-66
2022/07/30 03:05:44;;;;;;;7.00;5.27;;;;;;;20.77;64.33;101260.00;5056822;28;20414;-68
2022/07/30 03:08:09;;;;;;;6.63;5.60;;;;;;;20.51;64.48;101259.69;5056721;28;20448;-68
2022/07/30 03:10:35;;;;;;;7.43;6.13;;;;;;;20.68;64.63;101258.41;5056781;28;20212;-67
2022/07/30 03:13:03;;;;;;;8.43;5.43;;;;;;;20.73;64.62;101258.31;5057114;28;20216;-67
2022/07/30 03:15:29;;;;;;;8.30;5.77;;;;;;;20.75;64.64;101259.16;5056507;28;20634;-66
2022/07/30 03:17:56;;;;;;;6.73;6.00;;;;;;;20.78;64.22;101256.44;5056643;28;20420;-67
2022/07/30 03:20:25;;;;;;;6.77;5.53;;;;;;;20.60;64.93;101255.09;5059231;28;20172;-68
2022/07/30 03:22:52;;;;;;;6.17;5.67;;;;;;;20.52;64.77;101261.41;5060179;28;20779;-67
2022/07/30 03:25:25;;;;;;;5.57;5.07;;;;;;;20.57;65.28;101255.16;5060251;28;20401;-67
2022/07/30 03:27:51;;;;;;;6.23;5.70;;;;;;;20.63;64.26;101255.00;5060355;28;20408;-68
2022/07/30 03:30:17;;;;;;;6.40;5.80;;;;;;;20.62;64.75;101251.50;5060215;28;20490;-68
2022/07/30 03:32:43;;;;;;;7.10;5.97;;;;;;;20.60;64.84;101250.66;5061363;28;20657;-68
2022/07/30 03:35:09;;;;;;;6.10;5.60;;;;;;;20.16;66.40;101258.72;5060700;28;20477;-67
2022/07/30 03:37:36;;;;;;;7.90;5.70;;;;;;;20.09;66.51;101261.53;5043759;28;20174;-68
2022/07/30 03:40:03;;;;;;;9.13;5.63;;;;;;;20.53;65.31;101262.31;5044005;28;20603;-67
2022/07/30 03:42:30;;;;;;;6.10;5.50;;;;;;;20.37;65.83;101267.06;5059836;28;20485;-67
2022/07/30 03:44:56;;;;;;;7.00;5.90;;;;;;;20.05;66.92;101255.41;5059824;28;20420;-68
2022/07/30 03:47:21;;;;;;;8.00;6.30;;;;;;;20.28;65.78;101259.34;5060483;28;20470;-67
2022/07/30 03:49:47;;;;;;;7.93;5.80;;;;;;;20.40;65.74;101247.59;5060063;28;20181;-67
2022/07/30 03:52:12;;;;;;;6.07;5.47;;;;;;;20.03;67.22;101250.16;5060477;28;20216;-67
2022/07/30 03:54:38;;;;;;;10.37;6.17;;;;;;;20.30;65.65;101255.75;5059530;28;20222;-67
2022/07/30 03:57:04;;;;;;;6.30;5.70;;;;;;;20.31;66.46;101256.63;5059743;28;20185;-68
2022/07/30 03:59:29;;;;;;;9.03;6.20;;;;;;;20.37;66.03;101248.53;5060083;28;20177;-69
2022/07/30 04:02:02;;;;;;;6.23;5.63;;;;;;;20.43;65.50;101245.75;5060160;28;20255;-68
2022/07/30 04:04:29;;;;;;;5.87;5.37;;;;;;;19.94;66.84;101252.13;5060114;28;20170;-66
2022/07/30 04:06:57;;;;;;;6.93;6.23;;;;;;;20.13;66.54;101252.59;5060532;28;20386;-67
2022/07/30 04:09:23;;;;;;;5.97;5.30;;;;;;;20.46;65.70;101244.81;5060268;28;20507;-67
2022/07/30 04:11:48;;;;;;;6.63;5.70;;;;;;;19.94;66.56;101244.19;5061148;28;20754;-69
2022/07/30 04:14:13;;;;;;;6.43;5.53;;;;;;;20.50;64.79;101247.34;5060388;28;20493;-68
2022/07/30 04:16:49;;;;;;;6.50;5.87;;;;;;;20.34;64.85;101248.63;5059927;28;20223;-69
2022/07/30 04:19:41;;;;;;;6.63;5.93;;;;;;;19.86;66.79;101249.66;5059416;28;20441;-67
2022/07/30 04:22:07;;;;;;;7.57;5.87;;;;;;;20.44;64.45;101251.91;5058016;28;20502;-67
2022/07/30 04:24:33;;;;;;;6.30;5.70;;;;;;;20.28;64.96;101248.75;5059478;28;20829;-68
2022/07/30 04:26:59;;;;;;;5.97;5.37;;;;;;;19.98;65.49;101259.09;5059600;28;20501;-68
2022/07/30 04:29:24;;;;;;;6.87;5.13;;;;;;;20.47;64.47;101258.03;5059502;28;20838;-67
2022/07/30 04:31:52;;;;;;;6.00;5.40;;;;;;;19.87;65.61;101255.81;5059287;28;20162;-69
2022/07/30 04:34:17;;;;;;;5.57;5.07;;;;;;;20.56;64.03;101262.22;5059503;28;20170;-67
2022/07/30 04:36:43;;;;;;;6.30;5.20;;;;;;;20.31;64.63;101257.50;5059591;28;20473;-68
2022/07/30 04:39:09;;;;;;;5.80;5.30;;;;;;;20.49;63.95;101261.50;5059641;28;20257;-68
2022/07/30 04:41:35;;;;;;;5.80;5.13;;;;;;;20.18;65.05;101267.47;5059293;28;20198;-67
2022/07/30 04:44:00;;;;;;;9.83;5.40;;;;;;;20.39;64.01;101267.94;5059294;28;20865;-68
2022/07/30 04:46:26;;;;;;;9.03;5.80;;;;;;;20.66;63.32;101260.22;5059982;28;20257;-68
2022/07/30 04:48:52;;;;;;;7.70;5.37;;;;;;;20.68;63.32;101264.59;5061106;28;20174;-68
2022/07/30 04:51:22;;;;;;;7.20;5.27;;;;;;;20.31;63.89;101272.50;5059487;28;20170;-68
2022/07/30 04:53:48;;;;;;;6.00;5.30;;;;;;;20.19;64.40;101271.03;5059144;28;20463;-68
2022/07/30 04:56:14;;;;;;;10.00;5.53;;;;;;;20.65;63.25;101274.41;5058262;28;20852;-69
2022/07/30 04:58:40;;;;;;;5.77;5.17;;;;;;;19.79;65.22;101280.63;5059261;28;20400;-67
2022/07/30 05:01:06;;;;;;;8.63;5.00;;;;;;;19.24;67.76;101271.09;5058246;28;20390;-69
2022/07/30 05:03:33;;;;;;;5.47;5.03;;;;;;;19.11;68.35;101275.75;5058969;28;20249;-70
2022/07/30 05:05:59;;;;;;;6.23;5.60;;;;;;;18.85;69.14;101275.22;5058790;28;20166;-69
2022/07/30 05:08:25;;;;;;;5.97;4.70;;;;;;;19.21;67.98;101271.16;5059097;28;20418;-69
2022/07/30 05:10:51;;;;;;;6.57;5.13;;;;;;;18.80;69.11;101277.06;5058266;28;20474;-68
2022/07/30 05:13:16;;;;;;;6.50;5.13;;;;;;;18.80;69.35;101277.06;5058571;28;20383;-67
2022/07/30 05:15:45;;;;;;;5.70;5.20;;;;;;;18.53;69.95;101275.75;5058749;28;20169;-66
2022/07/30 05:18:11;;;;;;;5.70;4.40;;;;;;;18.93;69.54;101272.50;5058908;28;20249;-66
2022/07/30 05:20:37;;;;;;;8.30;5.50;;;;;;;19.49;66.97;101275.03;5059254;28;20415;-65
2022/07/30 05:23:02;;;;;;;5.30;4.53;;;;;;;19.13;67.73;101285.38;5058587;28;20464;-66
2022/07/30 05:25:28;;;;;;;5.70;5.03;;;;;;;19.62;66.65;101277.44;5058501;28;20260;-66
2022/07/30 05:27:55;;;;;;;5.90;5.30;;;;;;;19.48;65.70;101281.25;5059154;28;20177;-66
2022/07/30 05:30:21;;;;;;;5.53;5.03;;;;;;;19.69;66.13;101279.06;5058719;28;20201;-67
2022/07/30 05:32:46;;;;;;;8.30;4.70;;;;;;;19.75;65.06;101278.94;5058587;28;20818;-66
2022/07/30 05:35:11;;;;;;;6.37;5.10;;;;;;;19.18;66.85;101287.94;5058796;28;20206;-67
2022/07/30 05:37:37;;;;;;;9.13;5.20;;;;;;;19.36;66.74;101281.44;5058494;28;20253;-67
2022/07/30 05:40:03;;;;;;;6.07;5.43;;;;;;;19.15;67.42;101288.00;5058416;28;20528;-66
2022/07/30 05:42:28;;;;;;;5.50;5.00;;;;;;;19.08;67.35;101281.06;5058864;28;20227;-66
2022/07/30 05:44:54;;;;;;;7.13;5.10;;;;;;;19.94;64.76;101281.25;5058715;28;20399;-68
2022/07/30 05:47:19;;;;;;;7.20;5.40;;;;;;;19.49;65.85;101285.59;5058415;28;20528;-66
2022/07/30 05:49:45;;;;;;;6.17;4.93;;;;;;;19.59;65.79;101283.69;5058949;28;20177;-67
2022/07/30 05:52:11;;;;;;;6.13;5.30;;;;;;;19.73;65.08;101288.69;5058479;28;20227;-68
2022/07/30 05:54:36;;;;;;;7.00;5.10;;;;;;;19.82;64.46;101295.59;5058243;28;20249;-67
2022/07/30 05:57:01;;;;;;;5.00;4.50;;;;;;;19.05;66.93;101295.22;5058859;28;20177;-68
2022/07/30 05:59:27;;;;;;;6.60;4.93;;;;;;;19.56;65.77;101293.44;5058324;28;20499;-67
2022/07/30 06:01:52;;;;;;;6.93;5.00;;;;;;;19.83;65.10;101290.25;5058218;28;20484;-69
2022/07/30 06:04:17;;;;;;;5.73;5.20;;;;;;;19.55;65.41;101303.13;5058329;28;20462;-68
2022/07/30 06:06:43;;;;;;;6.67;4.80;;;;;;;19.98;64.38;101297.00;5058137;28;20173;-67
2022/07/30 06:09:08;;;;;;;7.00;4.77;;;;;;;19.84;64.84;101292.00;5058054;28;20169;-67
2022/07/30 06:11:33;;;;;;;5.70;5.10;;;;;;;20.81;61.23;101291.69;5059544;28;20184;-67
2022/07/30 06:13:59;;;;;;;5.90;5.20;;;;;;;20.75;62.22;101296.25;5058006;28;20252;-68
2022/07/30 06:16:25;;;;;;;6.80;5.50;;;;;;;20.76;62.53;101300.66;5057904;28;20170;-67
2022/07/30 06:18:50;;;;;;;8.77;5.03;;;;;;;20.65;62.18;101296.44;5058298;28;20408;-68
2022/07/30 06:21:15;;;;;;;14.53;12.87;;;;;;;21.10;61.05;101290.09;5057866;28;20193;-65
2022/07/30 06:23:41;;;;;;;17.73;15.97;;;;;;;21.03;61.30;101293.81;5057721;28;20535;-65
2022/07/30 06:26:06;;;;;;;12.47;11.13;;;;;;;21.07;61.47;101299.88;5058263;28;20177;-66
2022/07/30 06:28:32;;;;;;;10.87;9.90;;;;;;;20.88;60.88;101294.16;5057881;28;20173;-65
2022/07/30 06:30:57;;;;;;;6.07;5.40;;;;;;;21.08;60.84;101293.69;5057856;28;20204;-66
2022/07/30 06:33:23;;;;;;;6.90;5.47;;;;;;;21.06;59.76;101293.72;5058160;28;20170;-66
2022/07/30 06:35:48;;;;;;;13.63;12.23;;;;;;;21.08;60.07;101297.22;5057764;28;20174;-65
2022/07/30 06:38:13;;;;;;;9.93;6.13;;;;;;;20.95;60.29;101298.44;5057787;28;20184;-65
2022/07/30 06:40:39;;;;;;;5.80;5.20;;;;;;;20.50;61.97;101305.63;5058179;28;20173;-66
2022/07/30 06:43:04;;;;;;;6.10;5.50;;;;;;;20.08;63.54;101303.00;5057850;28;20471;-65
2022/07/30 06:45:29;;;;;;;9.07;8.13;;;;;;;20.41;63.25;101304.97;5057567;28;20170;-68
2022/07/30 06:47:58;;;;;;;8.10;6.90;;;;;;;21.00;61.60;101299.19;5057511;28;20173;-67
2022/07/30 06:50:25;;;;;;;11.20;8.53;;;;;;;21.15;62.15;101303.25;5057712;28;20542;-68
2022/07/30 06:52:51;;;;;;;7.30;6.60;;;;;;;20.52;62.71;101303.78;5057493;28;20420;-67
2022/07/30 06:55:16;;;;;;;10.90;9.63;;;;;;;20.94;63.59;101309.94;5060504;28;20509;-67
2022/07/30 06:57:42;;;;;;;10.17;9.17;;;;;;;20.98;62.89;101308.94;5060847;28;20188;-67
2022/07/30 07:00:08;;;;;;;13.20;8.07;;;;;;;20.80;64.16;101311.13;5061622;28;20256;-68
2022/07/30 07:02:33;;;;;;;5.70;5.20;;;;;;;21.45;59.92;101316.59;5061787;28;20488;-66
2022/07/30 07:04:59;;;;;;;10.27;9.13;;;;;;;21.23;60.19;101310.97;5060700;28;20180;-67
2022/07/30 07:07:24;;;;;;;10.63;6.00;;;;;;;20.78;61.55;101312.97;5061420;28;20535;-67
2022/07/30 07:09:50;;;;;;;11.00;6.20;;;;;;;20.75;62.93;101306.88;5061561;28;20181;-66
2022/07/30 07:12:15;;;;;;;7.77;6.20;;;;;;;20.63;63.23;101319.44;5061270;28;20173;-67
2022/07/30 07:14:40;;;;;;;7.80;6.10;;;;;;;20.69;62.75;101315.84;5061012;28;20197;-66
2022/07/30 07:17:06;;;;;;;8.23;7.43;;;;;;;21.14;61.10;101310.31;5061673;28;20173;-67
2022/07/30 07:19:31;;;;;;;9.93;6.40;;;;;;;21.08;61.20;101313.13;5061283;28;20180;-66
2022/07/30 07:21:57;;;;;;;6.20;5.60;;;;;;;21.25;61.29;101303.88;5061127;28;20278;-66
2022/07/30 07:24:22;;;;;;;9.30;5.90;;;;;;;21.55;60.02;101302.19;5061306;28;20193;-68
2022/07/30 07:26:48;;;;;;;6.17;5.60;;;;;;;22.23;57.85;101296.75;5061053;28;20412;-67
2022/07/30 07:29:13;;;;;;;7.40;5.90;;;;;;;22.41;57.08;101297.97;5060965;28;20184;-69
2022/07/30 07:31:39;;;;;;;6.70;6.00;;;;;;;22.20;57.82;101301.25;5060552;28;20264;-67
2022/07/30 07:34:05;;;;;;;9.60;5.50;;;;;;;22.44;56.89;101295.25;5060874;28;20445;-66
2022/07/30 07:36:30;;;;;;;7.83;6.13;;;;;;;22.60;56.58;101293.84;5060840;28;20420;-66
2022/07/30 07:38:56;;;;;;;9.10;5.40;;;;;;;22.76;55.60;101294.22;5061089;28;20169;-65
2022/07/30 07:41:21;;;;;;;6.60;6.00;;;;;;;22.64;56.54;101297.28;5060904;28;20219;-67
2022/07/30 07:43:47;;;;;;;8.77;5.90;;;;;;;22.31;58.73;101300.03;5060545;28;20196;-68
2022/07/30 07:46:15;;;;;;;8.00;6.17;;;;;;;22.17;59.60;101301.31;5061171;28;20181;-68
2022/07/30 07:48:41;;;;;;;7.53;6.10;;;;;;;21.91;60.53;101298.59;5060658;28;20204;-68
2022/07/30 07:51:06;;;;;;;6.40;5.80;;;;;;;22.16;60.18;101298.72;5060572;28;20752;-69
2022/07/30 07:53:32;;;;;;;6.37;5.80;;;;;;;22.25;60.04;101297.56;5060887;28;20496;-68
2022/07/30 07:55:58;;;;;;;6.33;5.70;;;;;;;22.49;58.77;101304.81;5060690;28;20227;-67
2022/07/30 07:58:24;;;;;;;6.43;5.83;;;;;;;22.18;59.40;101300.41;5060562;28;20184;-68
2022/07/30 08:00:49;;;;;;;7.00;6.30;;;;;;;22.29;59.39;101315.16;5060328;28;20424;-68
2022/07/30 08:03:14;;;;;;;7.43;6.50;;;;;;;22.55;59.01;101309.06;5060216;28;20262;-69
2022/07/30 08:05:40;;;;;;;8.53;6.17;;;;;;;22.74;58.39;101305.81;5059462;28;20249;-68
2022/07/30 08:08:05;;;;;;;7.20;6.23;;;;;;;22.41;59.16;101312.16;5060088;28;20573;-68
2022/07/30 08:10:30;;;;;;;7.17;6.47;;;;;;;22.47;59.61;101316.41;5060147;28;20174;-67
2022/07/30 08:12:56;;;;;;;7.63;6.50;;;;;;;22.94;58.37;101318.47;5060435;28;20177;-71
2022/07/30 08:15:21;;;;;;;7.90;5.80;;;;;;;22.84;58.06;101315.22;5060011;28;20268;-69
2022/07/30 08:17:47;;;;;;;7.20;6.47;;;;;;;23.07;57.89;101318.91;5060219;28;20169;-69
2022/07/30 08:20:13;;;;;;;7.70;6.90;;;;;;;22.93;58.08;101312.28;5060574;28;20256;-68
2022/07/30 08:22:39;;;;;;;6.93;6.23;;;;;;;22.74;58.05;101316.47;5059744;28;20212;-66
2022/07/30 08:25:06;;;;;;;7.53;6.70;;;;;;;22.59;59.25;101317.81;5059572;28;20455;-67
2022/07/30 08:27:31;;;;;;;7.90;6.20;;;;;;;22.72;59.29;101324.50;5059564;28;20494;-68
2022/07/30 08:29:56;;;;;;;6.83;6.20;;;;;;;23.24;57.48;101315.75;5059726;28;20853;-68
2022/07/30 08:32:22;;;;;;;6.90;6.30;;;;;;;23.11;57.41;101318.78;5059739;28;20173;-68
2022/07/30 08:34:48;;;;;;;6.67;6.00;;;;;;;23.15;56.82;101319.56;5060024;28;20170;-67
2022/07/30 08:37:14;;;;;;;6.57;5.97;;;;;;;23.21;56.81;101322.03;5059728;28;20232;-68
2022/07/30 08:39:39;;;;;;;6.40;5.80;;;;;;;23.38;56.05;101318.78;5059783;28;20420;-69
2022/07/30 08:42:04;;;;;;;10.17;6.60;;;;;;;22.98;56.14;101310.34;5059812;28;20284;-67
2022/07/30 08:44:31;;;;;;;7.30;6.10;;;;;;;22.95;55.88;101321.09;5058733;28;20169;-70
2022/07/30 08:46:58;;;;;;;8.17;5.93;;;;;;;23.23;55.78;101321.97;5059571;28;20169;-68
2022/07/30 08:49:23;;;;;;;7.87;5.93;;;;;;;23.19;55.96;101323.84;5059373;28;20499;-68
2022/07/30 08:51:50;;;;;;;5.53;5.03;;;;;;;23.27;55.46;101324.47;5058691;28;20510;-68
2022/07/30 08:54:17;;;;;;;10.20;6.30;;;;;;;23.07;55.81;101322.47;5059116;28;20229;-67
2022/07/30 08:56:43;;;;;;;6.00;5.40;;;;;;;22.96;56.17;101333.47;5059668;28;20448;-67
2022/07/30 08:59:09;;;;;;;6.33;5.73;;;;;;;23.31;55.62;101330.56;5059546;28;20454;-68
2022/07/30 09:01:34;;;;;;;6.80;6.13;;;;;;;23.00;57.13;101328.91;5059057;28;20292;-68
2022/07/30 09:04:00;;;;;;;6.07;5.57;;;;;;;22.89;57.62;101331.91;5058600;28;20173;-68
2022/07/30 09:06:26;;;;;;;7.03;6.20;;;;;;;22.79;57.80;101330.47;5058970;28;20480;-67
2022/07/30 09:08:51;;;;;;;8.37;6.07;;;;;;;22.90;57.49;101338.09;5059049;28;20174;-67
2022/07/30 09:11:16;;;;;;;6.10;5.57;;;;;;;23.30;56.05;101336.78;5059674;28;20169;-67
2022/07/30 09:13:43;;;;;;;8.27;6.33;;;;;;;22.76;57.23;101334.09;5058956;28;20181;-67
2022/07/30 09:16:24;;;;;;;6.13;5.20;;;;;;;23.23;56.08;101333.47;5059010;28;20188;-68
2022/07/30 09:18:51;;;;;;;6.60;5.97;;;;;;;22.87;57.76;101337.28;5058479;28;20481;-67
2022/07/30 09:21:24;;;;;;;6.40;5.80;;;;;;;23.08;57.10;101337.47;5058689;28;20494;-67
2022/07/30 09:24:04;;;;;;;7.67;5.90;;;;;;;23.39;56.27;101344.47;5057894;28;20497;-67
2022/07/30 09:26:31;;;;;;;6.93;6.30;;;;;;;23.59;55.93;101343.78;5058992;28;20431;-70
2022/07/30 09:29:18;;;;;;;7.57;6.80;;;;;;;23.68;55.55;101345.25;5058607;28;20420;-69
2022/07/30 09:31:56;;;;;;;7.97;6.47;;;;;;;23.79;56.46;101339.53;5038709;28;20412;-68
2022/07/30 09:34:30;;;;;;;7.47;6.40;;;;;;;23.91;55.95;101344.44;5038713;28;20496;-67
2022/07/30 09:36:57;;;;;;;13.63;6.60;;;;;;;23.17;57.32;101347.84;5039045;28;20503;-67
2022/07/30 09:39:29;;;;;;;9.50;7.17;;;;;;;23.79;56.61;101345.72;5038505;28;20484;-68
2022/07/30 09:41:55;;;;;;;8.23;7.10;;;;;;;23.71;57.08;101348.66;5038526;28;20713;-67
2022/07/30 09:44:25;;;;;;;10.53;6.33;;;;;;;23.94;56.11;101354.13;5038711;28;20508;-67
2022/07/30 09:46:51;;;;;;;7.90;6.90;;;;;;;24.00;55.43;101344.13;5038630;28;20440;-68
2022/07/30 09:49:17;;;;;;;7.07;6.27;;;;;;;23.56;56.74;101343.88;5038498;28;20417;-68
2022/07/30 09:51:42;;;;;;;9.20;6.33;;;;;;;23.97;55.69;101346.88;5038990;28;20177;-69
2022/07/30 09:54:08;;;;;;;6.87;6.17;;;;;;;23.95;55.44;101340.75;5038035;28;20472;-69
2022/07/30 09:56:33;;;;;;;7.83;6.40;;;;;;;24.47;54.11;101348.53;5038479;28;20177;-68
2022/07/30 09:58:59;;;;;;;7.87;6.10;;;;;;;24.20;54.95;101354.00;5038703;28;20170;-67
2022/07/30 10:01:24;;;;;;;8.63;5.90;;;;;;;24.08;54.76;101349.13;5038430;28;20239;-66
2022/07/30 10:03:50;;;;;;;6.57;5.97;;;;;;;23.61;56.58;101346.38;5038173;28;20174;-66
2022/07/30 10:06:15;;;;;;;7.10;5.60;;;;;;;23.70;56.39;101349.56;5037932;28;20220;-65
2022/07/30 10:08:45;;;;;;;7.77;5.47;;;;;;;24.29;54.57;101338.59;5038036;28;20209;-66
2022/07/30 10:11:13;;;;;;;7.43;5.80;;;;;;;24.09;54.29;101348.22;5038272;28;20519;-66
2022/07/30 10:13:39;;;;;;;7.17;5.50;;;;;;;24.61;53.17;101347.13;5039719;28;20401;-65
2022/07/30 10:16:06;;;;;;;9.20;7.07;;;;;;;24.79;52.23;101346.44;5038120;28;20417;-66
2022/07/30 10:18:31;;;;;;;6.00;5.50;;;;;;;24.98;52.12;101349.22;5037990;28;20416;-67
2022/07/30 10:20:57;;;;;;;9.23;5.30;;;;;;;24.77;52.00;101348.28;5038440;28;20810;-68
2022/07/30 10:23:26;;;;;;;5.77;5.27;;;;;;;24.69;52.37;101356.63;5037858;28;20571;-69
2022/07/30 10:25:54;;;;;;;5.77;5.17;;;;;;;24.57;52.90;101353.53;5037126;28;20417;-69
2022/07/30 10:28:20;;;;;;;6.37;5.57;;;;;;;24.66;52.42;101353.19;5037399;28;20432;-69
2022/07/30 10:30:48;;;;;;;6.23;5.00;;;;;;;24.99;52.44;101350.06;5051172;28;20412;-67
2022/07/30 10:33:13;;;;;;;7.20;5.23;;;;;;;24.71;52.84;101354.75;5057723;28;20541;-67
2022/07/30 10:35:39;;;;;;;6.40;5.70;;;;;;;24.83;51.94;101357.84;5057942;28;20412;-67
2022/07/30 10:38:10;;;;;;;6.23;5.63;;;;;;;24.89;52.17;101357.59;5057591;28;20185;-68
2022/07/30 10:40:39;;;;;;;7.83;5.50;;;;;;;24.83;53.00;101361.38;5057573;28;20189;-67
2022/07/30 10:43:16;;;;;;;9.83;5.60;;;;;;;25.00;51.76;101349.16;5057414;28;20455;-67
2022/07/30 10:46:14;;;;;;;8.53;5.40;;;;;;;25.19;51.92;101347.47;5056944;28;20423;-67
2022/07/30 10:48:39;;;;;;;10.90;5.80;;;;;;;25.09;51.90;101350.59;5056833;28;20422;-69
2022/07/30 10:51:05;;;;;;;9.27;5.60;;;;;;;25.50;50.92;101350.66;5056787;28;20646;-69
2022/07/30 10:53:32;;;;;;;6.63;5.47;;;;;;;25.43;49.92;101355.38;5056625;28;20546;-69
2022/07/30 10:56:15;;;;;;;5.60;5.10;;;;;;;24.69;51.96;101355.72;5058190;28;20454;-70
2022/07/30 10:59:03;;;;;;;10.23;6.60;;;;;;;25.89;49.43;101348.00;5057337;28;20448;-69
2022/07/30 11:01:48;;;;;;;6.23;5.60;;;;;;;25.99;48.23;101347.59;5056766;28;20470;-68
2022/07/30 11:04:22;;;;;;;5.73;5.07;;;;;;;26.02;48.64;101347.44;5057365;28;20419;-68
2022/07/30 11:06:48;;;;;;;7.53;5.03;;;;;;;26.37;47.81;101336.97;5057534;28;20419;-68
2022/07/30 11:09:36;;;;;;;5.20;4.80;;;;;;;26.59;46.66;101342.16;5057591;28;20499;-68
2022/07/30 11:12:03;;;;;;;6.50;5.90;;;;;;;25.80;49.19;101345.75;5057607;28;20404;-69
2022/07/30 11:14:47;;;;;;;5.50;5.03;;;;;;;26.33;47.81;101351.41;5056524;28;20506;-66
2022/07/30 11:17:14;;;;;;;4.80;4.40;;;;;;;26.83;46.42;101353.50;5057483;28;20793;-66
2022/07/30 11:20:01;;;;;;;7.40;5.10;;;;;;;27.09;45.48;101358.50;5057223;28;20424;-69
2022/07/30 11:22:37;;;;;;;5.40;4.90;;;;;;;28.32;42.19;101351.22;5057237;28;20474;-68
2022/07/30 11:25:03;;;;;;;8.60;4.70;;;;;;;28.99;40.66;101345.66;5056587;28;20427;-68
2022/07/30 11:27:39;;;;;;;6.17;4.60;;;;;;;28.33;42.52;101344.91;5057113;28;20419;-68